Startpagina
METAR-TAF:

METAR-TAF

Vliegvelden :

Luchthaven Port Moresby

Port Moresby, Papoea-Nieuw-Guinea

breedte: 09-26S, lengte: 147-13E, hoogte: 38 m

Actueel weer

Dit bericht is 2 uur en het 41 minuten geleden gemaakt, om 06:00 UTC
Wind 20 kt uit het zuidoosten
Temperatuur 25°C
Vochtigheid 83%
Druk 1008 hPa
Zicht 10 km of meer
Verspreide wolken op 1000 ft
Verspreide wolken op 2500 ft
Gebroken wolken op 4000 ft
regenbuien

METAR: AYPY 190600Z 14020KT 9999 SHRA SCT010 SCT025 BKN040 25/22 Q1008 RMK/ BUILD UPS IN AREA

Tijdstip: 18:41 (08:41 UTC)

Verwachting

Dit bericht is 4 uur en het 35 minuten geleden gemaakt, om 04:06 UTC
Verwachting geldig van 19 om 06 UTC tot 20 om 06 UTC
Wind 15 kt uit het zuiden
Zicht: 4000 m
Gebroken wolken op 1500 ft
Gebroken wolken op 3000 ft
Gebroken wolken op 800 ft

TAF: AYPY 190406Z 1906/2006 17015KT 9999 -R ADZ Z BKN015 BKN030 INTER 1906/1912 4000 +R ADZ Z BKN008 COR COPY

Waarnemingen en weersverwachtingen van meer dan 4000 vliegvelden (METAR en TAF).

De beschikbare stations zijn de gele en rode punten op de kaart.

Ga met uw muis naar het station om de naam te zien.

Klik dan om waarnemingen en weersverwachtingen te zien.

kaart wijzigen: klik op de groene knoppen met een zwart kruis om in te zoomen, op de groene knop met een streepje om uit te zoomen of op de groene pijlen voor aangrenzende kaarten.


METAR-TAF: